createdAt,value
2018-03-08T00:00:08.171Z,8.89
2018-03-08T00:00:48.637Z,8.94
2018-03-08T00:01:29.138Z,8.94
2018-03-08T00:02:09.663Z,8.94
2018-03-08T00:02:50.213Z,8.99
2018-03-08T00:03:30.701Z,8.86
2018-03-08T00:04:11.216Z,8.83
2018-03-08T00:04:51.673Z,8.95
2018-03-08T00:05:32.205Z,8.96
2018-03-08T00:06:12.738Z,8.79
2018-03-08T00:06:53.249Z,8.81
2018-03-08T00:07:33.748Z,8.94
2018-03-08T00:08:14.244Z,8.94
2018-03-08T00:08:54.743Z,8.87
2018-03-08T00:09:35.260Z,8.87
2018-03-08T00:10:15.761Z,8.86
2018-03-08T00:10:56.260Z,8.81
2018-03-08T00:11:36.738Z,8.83
2018-03-08T00:12:17.268Z,8.95
2018-03-08T00:12:57.721Z,8.96
2018-03-08T00:13:38.218Z,8.94
2018-03-08T00:14:18.736Z,8.99
2018-03-08T00:14:59.209Z,8.68
2018-03-08T00:15:39.678Z,8.87
2018-03-08T00:16:20.154Z,8.92
2018-03-08T00:17:00.667Z,8.84
2018-03-08T00:17:41.163Z,8.73
2018-03-08T00:18:21.674Z,8.79
2018-03-08T00:19:02.159Z,8.77
2018-03-08T00:19:42.652Z,8.76
2018-03-08T00:20:23.193Z,8.81
2018-03-08T00:21:03.664Z,8.92
2018-03-08T00:21:44.199Z,8.84
2018-03-08T00:22:24.708Z,8.98
2018-03-08T00:23:05.196Z,9.02
2018-03-08T00:23:45.668Z,8.81
2018-03-08T00:24:26.206Z,8.86
2018-03-08T00:25:06.781Z,8.89
2018-03-08T00:25:47.140Z,8.96
2018-03-08T00:26:27.646Z,8.81
2018-03-08T00:27:08.122Z,8.84
2018-03-08T00:27:48.744Z,8.83
2018-03-08T00:28:29.253Z,8.81
2018-03-08T00:29:09.741Z,8.89
2018-03-08T00:29:50.212Z,8.92
2018-03-08T00:30:30.712Z,8.91
2018-03-08T00:31:11.199Z,8.96
2018-03-08T00:31:51.792Z,8.91
2018-03-08T00:32:32.289Z,8.84
2018-03-08T00:33:12.792Z,8.81
2018-03-08T00:33:53.304Z,8.84
2018-03-08T00:34:33.809Z,8.87
2018-03-08T00:35:14.282Z,8.79
2018-03-08T00:35:54.795Z,8.83
2018-03-08T00:36:35.333Z,8.96
2018-03-08T00:37:15.883Z,8.98
2018-03-08T00:37:56.394Z,9.1
2018-03-08T00:38:36.859Z,9.02
2018-03-08T00:39:17.381Z,9.15
2018-03-08T00:39:57.886Z,9.31
2018-03-08T00:40:38.406Z,9.23
2018-03-08T00:41:18.858Z,9.26
2018-03-08T00:41:59.353Z,9.13
2018-03-08T00:42:39.868Z,9.08
2018-03-08T00:43:20.403Z,9.21
2018-03-08T00:44:00.938Z,9.11
2018-03-08T00:44:41.456Z,9.2
2018-03-08T00:45:21.969Z,9.08
2018-03-08T00:46:02.487Z,9.02
2018-03-08T00:46:43.004Z,9.01
2018-03-08T00:47:23.534Z,9.04
2018-03-08T00:48:04.059Z,9.05
2018-03-08T00:48:44.568Z,9.01
2018-03-08T00:49:25.087Z,8.96
2018-03-08T00:50:05.603Z,9.1
2018-03-08T00:50:46.103Z,9.08
2018-03-08T00:51:26.620Z,9.08
2018-03-08T00:52:07.152Z,9.1
2018-03-08T00:52:47.669Z,9.14
2018-03-08T00:53:28.175Z,9.14
2018-03-08T00:54:08.686Z,9.28
2018-03-08T00:54:49.199Z,9.24
2018-03-08T00:55:29.714Z,9.2
2018-03-08T00:56:10.241Z,9.24
2018-03-08T00:56:50.767Z,9.26
2018-03-08T00:57:31.271Z,9.31
2018-03-08T00:58:11.797Z,9.29
2018-03-08T00:58:52.319Z,9.46
2018-03-08T00:59:32.828Z,9.39
2018-03-08T01:00:13.325Z,9.53
2018-03-08T01:00:53.857Z,9.48
2018-03-08T01:01:34.375Z,9.43
2018-03-08T01:02:14.875Z,9.4
2018-03-08T01:02:55.365Z,9.36
2018-03-08T01:03:35.844Z,9.42
2018-03-08T01:04:16.335Z,9.4
2018-03-08T01:04:56.849Z,9.42
2018-03-08T01:05:37.331Z,9.53
2018-03-08T01:06:17.812Z,9.48
2018-03-08T01:06:58.267Z,9.61
2018-03-08T01:07:38.754Z,9.51
2018-03-08T01:08:19.287Z,9.56
2018-03-08T01:08:59.759Z,9.47
2018-03-08T01:09:40.248Z,9.5
2018-03-08T01:10:20.694Z,9.39
2018-03-08T01:11:01.234Z,9.54
2018-03-08T01:11:41.693Z,9.51
2018-03-08T01:12:22.183Z,9.47
2018-03-08T01:13:02.661Z,9.47
2018-03-08T01:13:43.160Z,9.57
2018-03-08T01:14:23.637Z,9.54
2018-03-08T01:15:05.122Z,9.6
2018-03-08T01:15:45.613Z,9.54
2018-03-08T01:16:26.118Z,9.54
2018-03-08T01:17:06.605Z,9.56
2018-03-08T01:17:47.094Z,9.54
2018-03-08T01:18:27.576Z,9.47
2018-03-08T01:19:08.074Z,9.39
2018-03-08T01:19:48.613Z,9.39
2018-03-08T01:20:29.119Z,9.43
2018-03-08T01:21:09.639Z,9.43
2018-03-08T01:21:50.177Z,9.43
2018-03-08T01:22:30.669Z,9.36
2018-03-08T01:23:11.118Z,9.39
2018-03-08T01:23:51.607Z,9.36
2018-03-08T01:24:32.145Z,9.36
2018-03-08T01:25:12.615Z,9.35
2018-03-08T01:25:53.116Z,9.42
2018-03-08T01:26:33.591Z,9.43
2018-03-08T01:27:14.097Z,9.36
2018-03-08T01:27:54.630Z,9.35
2018-03-08T01:28:35.081Z,9.38
2018-03-08T01:29:15.588Z,9.54
2018-03-08T01:29:56.068Z,9.53
2018-03-08T01:30:36.648Z,9.42
2018-03-08T01:31:17.123Z,9.36
2018-03-08T01:31:57.605Z,9.36
2018-03-08T01:32:38.111Z,9.26
2018-03-08T01:33:18.579Z,9.38
2018-03-08T01:33:59.107Z,9.4
2018-03-08T01:34:39.622Z,9.39
2018-03-08T01:35:20.050Z,9.39
2018-03-08T01:36:00.524Z,9.39
2018-03-08T01:36:41.008Z,9.46
2018-03-08T01:37:21.505Z,9.36
2018-03-08T01:38:02.014Z,9.38
2018-03-08T01:38:42.537Z,9.39
2018-03-08T01:39:23.044Z,9.42
2018-03-08T01:40:03.521Z,9.42
2018-03-08T01:40:44.014Z,9.36
2018-03-08T01:41:24.485Z,9.4
2018-03-08T01:42:04.984Z,9.56
2018-03-08T01:42:45.458Z,9.57
2018-03-08T01:43:25.989Z,9.54
2018-03-08T01:44:06.474Z,9.5
2018-03-08T01:44:47.006Z,9.56
2018-03-08T01:45:27.608Z,9.54
2018-03-08T01:46:08.102Z,9.39
2018-03-08T01:46:48.632Z,9.32
2018-03-08T01:47:29.081Z,9.39
2018-03-08T01:48:09.548Z,9.48
2018-03-08T01:48:50.062Z,9.51
2018-03-08T01:49:30.585Z,9.5
2018-03-08T01:50:11.042Z,9.51
2018-03-08T01:50:51.533Z,9.6
2018-03-08T01:51:32.042Z,9.54
2018-03-08T01:52:12.538Z,9.54
2018-03-08T01:52:53.007Z,9.48
2018-03-08T01:53:33.522Z,9.53
2018-03-08T01:54:14.018Z,9.69
2018-03-08T01:54:54.522Z,9.6
2018-03-08T01:55:35.097Z,9.6
2018-03-08T01:56:15.524Z,9.58
2018-03-08T01:56:56.010Z,9.65
2018-03-08T01:57:36.478Z,9.5
2018-03-08T01:58:16.977Z,9.53
2018-03-08T01:58:57.470Z,9.42
2018-03-08T01:59:37.988Z,9.54
2018-03-08T02:00:18.498Z,9.61
2018-03-08T02:00:59.016Z,9.56
2018-03-08T02:01:39.500Z,9.66
2018-03-08T02:02:20.000Z,9.51
2018-03-08T02:03:00.487Z,9.51
2018-03-08T02:03:41.004Z,9.56
2018-03-08T02:04:21.520Z,9.47
2018-03-08T02:05:02.031Z,9.51
2018-03-08T02:05:42.564Z,9.51
2018-03-08T02:06:23.060Z,9.53
2018-03-08T02:07:03.579Z,9.64
2018-03-08T02:07:44.116Z,9.64
2018-03-08T02:08:24.633Z,9.57
2018-03-08T02:09:05.154Z,9.6
2018-03-08T02:09:45.664Z,9.74
2018-03-08T02:10:26.189Z,9.76
2018-03-08T02:11:06.685Z,9.76
2018-03-08T02:11:47.202Z,9.72
2018-03-08T02:12:27.721Z,9.57
2018-03-08T02:13:08.227Z,9.6
2018-03-08T02:13:48.752Z,9.65
2018-03-08T02:14:29.262Z,9.69
2018-03-08T02:15:09.788Z,9.58
2018-03-08T02:15:50.311Z,9.66
2018-03-08T02:16:30.804Z,9.75
2018-03-08T02:17:11.301Z,9.75
2018-03-08T02:17:51.769Z,9.66
2018-03-08T02:18:32.265Z,9.74
2018-03-08T02:19:12.781Z,9.74
2018-03-08T02:19:53.314Z,9.69
2018-03-08T02:20:33.838Z,9.68
2018-03-08T02:21:14.345Z,9.72
2018-03-08T02:21:54.856Z,9.66
2018-03-08T02:22:35.371Z,9.72
2018-03-08T02:23:15.888Z,9.68
2018-03-08T02:23:56.394Z,9.57
2018-03-08T02:24:36.942Z,9.6
2018-03-08T02:25:17.433Z,9.65
2018-03-08T02:25:57.933Z,9.64
2018-03-08T02:26:38.463Z,9.6
2018-03-08T02:27:18.962Z,9.65
2018-03-08T02:27:59.482Z,9.54
2018-03-08T02:28:39.994Z,9.5
2018-03-08T02:29:20.513Z,9.48
2018-03-08T02:30:01.029Z,9.48
2018-03-08T02:30:41.537Z,9.54
2018-03-08T02:31:22.058Z,9.5
2018-03-08T02:32:02.596Z,9.43
2018-03-08T02:32:43.084Z,9.54
2018-03-08T02:33:23.599Z,9.57
2018-03-08T02:34:04.120Z,9.54
2018-03-08T02:34:44.638Z,9.53
2018-03-08T02:35:25.156Z,9.5
2018-03-08T02:36:05.619Z,9.53
2018-03-08T02:36:46.137Z,9.53
2018-03-08T02:37:26.653Z,9.48
2018-03-08T02:38:07.175Z,9.57
2018-03-08T02:38:47.689Z,9.58
2018-03-08T02:39:28.191Z,9.58
2018-03-08T02:40:08.718Z,9.65
2018-03-08T02:40:49.265Z,9.54
2018-03-08T02:41:29.791Z,9.39
2018-03-08T02:42:10.310Z,9.53
2018-03-08T02:42:50.832Z,9.53
2018-03-08T02:43:31.347Z,9.57
2018-03-08T02:44:11.850Z,9.61
2018-03-08T02:44:52.355Z,9.69
2018-03-08T02:45:32.879Z,9.71
2018-03-08T02:46:13.382Z,9.54
2018-03-08T02:46:53.891Z,9.5
2018-03-08T02:47:34.406Z,9.57
2018-03-08T02:48:14.926Z,9.6
2018-03-08T02:48:55.438Z,9.48
2018-03-08T02:49:35.970Z,9.47
2018-03-08T02:50:16.480Z,9.46
2018-03-08T02:50:56.987Z,9.51
2018-03-08T02:51:37.510Z,9.51
2018-03-08T02:52:18.023Z,9.39
2018-03-08T02:52:58.504Z,9.35
2018-03-08T02:53:39.052Z,9.43
2018-03-08T02:54:19.523Z,9.33
2018-03-08T02:55:00.037Z,9.33
2018-03-08T02:55:40.484Z,9.42
2018-03-08T02:56:21.037Z,9.35
2018-03-08T02:57:01.589Z,9.5
2018-03-08T02:57:42.054Z,9.46
2018-03-08T02:58:22.555Z,9.36
2018-03-08T02:59:03.082Z,9.38
2018-03-08T02:59:43.511Z,9.48
2018-03-08T03:00:24.032Z,9.5
2018-03-08T03:01:04.498Z,9.56
2018-03-08T03:01:44.972Z,9.53
2018-03-08T03:02:25.485Z,9.57
2018-03-08T03:03:06.021Z,9.5
2018-03-08T03:03:46.499Z,9.38
2018-03-08T03:04:26.983Z,9.42
2018-03-08T03:05:07.500Z,9.57
2018-03-08T03:05:48.010Z,9.47
2018-03-08T03:06:28.487Z,9.51
2018-03-08T03:07:08.979Z,9.5
2018-03-08T03:07:49.455Z,9.36
2018-03-08T03:08:29.978Z,9.51
2018-03-08T03:09:10.526Z,9.48
2018-03-08T03:09:51.087Z,9.6
2018-03-08T03:10:31.589Z,9.6
2018-03-08T03:11:12.042Z,9.68
2018-03-08T03:11:52.524Z,9.66
2018-03-08T03:12:33.027Z,9.48
2018-03-08T03:13:13.552Z,9.33
2018-03-08T03:13:54.074Z,9.35
2018-03-08T03:14:34.592Z,9.42
2018-03-08T03:15:15.142Z,9.54
2018-03-08T03:15:55.627Z,9.57
2018-03-08T03:16:36.105Z,9.65
2018-03-08T03:17:16.641Z,9.54
2018-03-08T03:17:57.100Z,9.61
2018-03-08T03:18:37.600Z,9.61
2018-03-08T03:19:18.104Z,9.64
2018-03-08T03:19:58.658Z,9.53
2018-03-08T03:20:39.136Z,9.54
2018-03-08T03:21:19.593Z,9.57
2018-03-08T03:22:00.051Z,9.58
2018-03-08T03:22:40.544Z,9.51
2018-03-08T03:23:21.042Z,9.54
2018-03-08T03:24:01.500Z,9.65
2018-03-08T03:24:42.005Z,9.6
2018-03-08T03:25:22.459Z,9.53
2018-03-08T03:26:02.978Z,9.58
2018-03-08T03:26:43.442Z,9.56
2018-03-08T03:27:23.956Z,9.68
2018-03-08T03:28:04.473Z,9.58
2018-03-08T03:28:45.000Z,9.5
2018-03-08T03:29:25.535Z,9.53
2018-03-08T03:30:06.066Z,9.64
2018-03-08T03:30:46.585Z,9.58
2018-03-08T03:31:27.098Z,9.6
2018-03-08T03:32:07.602Z,9.6
2018-03-08T03:32:48.115Z,9.64
2018-03-08T03:33:28.650Z,9.74
2018-03-08T03:34:09.164Z,9.71
2018-03-08T03:34:49.665Z,9.64
2018-03-08T03:35:30.176Z,9.74
2018-03-08T03:36:10.705Z,9.57
2018-03-08T03:36:51.211Z,9.68
2018-03-08T03:37:31.726Z,9.69
2018-03-08T03:38:12.234Z,9.6
2018-03-08T03:38:52.714Z,9.66
2018-03-08T03:39:33.210Z,9.71
2018-03-08T03:40:13.736Z,9.61
2018-03-08T03:40:54.234Z,9.61
2018-03-08T03:41:34.748Z,9.66
2018-03-08T03:42:15.283Z,9.64
2018-03-08T03:42:55.795Z,9.74
2018-03-08T03:43:36.301Z,9.74
2018-03-08T03:44:16.809Z,9.6
2018-03-08T03:44:57.324Z,9.51
2018-03-08T03:45:37.843Z,9.53
2018-03-08T03:46:18.351Z,9.54
2018-03-08T03:46:58.869Z,9.5
2018-03-08T03:47:39.382Z,9.47
2018-03-08T03:48:19.904Z,9.58
2018-03-08T03:49:00.400Z,9.56
2018-03-08T03:49:40.928Z,9.68
2018-03-08T03:50:21.447Z,9.74
2018-03-08T03:51:01.965Z,9.69
2018-03-08T03:51:42.503Z,9.72
2018-03-08T03:52:23.014Z,9.72
2018-03-08T03:53:03.531Z,9.71
2018-03-08T03:53:44.051Z,9.72
2018-03-08T03:54:24.575Z,9.75
2018-03-08T03:55:05.094Z,9.72
2018-03-08T03:55:45.639Z,9.76
2018-03-08T03:56:26.168Z,9.75
2018-03-08T03:57:06.666Z,9.71
2018-03-08T03:57:47.185Z,9.71
2018-03-08T03:58:27.704Z,9.79
2018-03-08T03:59:08.221Z,9.79
2018-03-08T03:59:48.733Z,9.89
2018-03-08T04:00:29.247Z,9.79
2018-03-08T04:01:09.765Z,9.75
2018-03-08T04:01:50.267Z,9.76
2018-03-08T04:02:30.788Z,9.74
2018-03-08T04:03:11.282Z,9.81
2018-03-08T04:03:51.809Z,9.84
2018-03-08T04:04:32.363Z,9.78
2018-03-08T04:05:12.853Z,9.86
2018-03-08T04:05:53.386Z,9.76
2018-03-08T04:06:33.911Z,9.76
2018-03-08T04:07:14.404Z,9.76
2018-03-08T04:07:54.936Z,9.86
2018-03-08T04:08:35.449Z,9.78
2018-03-08T04:09:15.964Z,9.79
2018-03-08T04:09:56.467Z,9.74
2018-03-08T04:10:36.988Z,9.69
2018-03-08T04:11:17.517Z,9.69
2018-03-08T04:11:58.023Z,9.75
2018-03-08T04:12:38.540Z,9.61
2018-03-08T04:13:19.066Z,9.61
2018-03-08T04:13:59.572Z,9.6
2018-03-08T04:14:40.092Z,9.65
2018-03-08T04:15:20.596Z,9.71
2018-03-08T04:16:01.119Z,9.68
2018-03-08T04:16:41.637Z,9.78
2018-03-08T04:17:22.149Z,9.75
2018-03-08T04:18:02.668Z,9.75
2018-03-08T04:18:43.191Z,9.69
2018-03-08T04:19:23.726Z,9.68
2018-03-08T04:20:04.222Z,9.72
2018-03-08T04:20:44.722Z,9.72
2018-03-08T04:21:25.235Z,9.6
2018-03-08T04:22:05.767Z,9.58
2018-03-08T04:22:46.298Z,9.61
2018-03-08T04:23:26.782Z,9.6
2018-03-08T04:24:07.293Z,9.68
2018-03-08T04:24:47.811Z,9.57
2018-03-08T04:25:28.325Z,9.54
2018-03-08T04:26:08.837Z,9.54
2018-03-08T04:26:49.365Z,9.6
2018-03-08T04:27:29.885Z,9.68
2018-03-08T04:28:10.392Z,9.61
2018-03-08T04:28:50.914Z,9.66
2018-03-08T04:29:31.411Z,9.69
2018-03-08T04:30:11.864Z,9.58
2018-03-08T04:30:52.367Z,9.69
2018-03-08T04:31:32.885Z,9.57
2018-03-08T04:32:13.397Z,9.53
2018-03-08T04:32:53.923Z,9.5
2018-03-08T04:33:34.437Z,9.5
2018-03-08T04:34:14.948Z,9.47
2018-03-08T04:34:55.470Z,9.43
2018-03-08T04:35:35.999Z,9.4
2018-03-08T04:36:16.513Z,9.53
2018-03-08T04:36:57.014Z,9.35
2018-03-08T04:37:37.540Z,9.36
2018-03-08T04:38:18.019Z,9.42
2018-03-08T04:38:58.518Z,9.38
2018-03-08T04:39:38.979Z,9.43
2018-03-08T04:40:19.479Z,9.35
2018-03-08T04:41:00.028Z,9.28
2018-03-08T04:41:40.563Z,9.24
2018-03-08T04:42:21.022Z,9.31
2018-03-08T04:43:01.465Z,9.31
2018-03-08T04:43:41.953Z,9.35
2018-03-08T04:44:22.456Z,9.5
2018-03-08T04:45:02.979Z,9.36
2018-03-08T04:45:43.495Z,9.32
2018-03-08T04:46:24.012Z,9.35
2018-03-08T04:47:04.516Z,9.32
2018-03-08T04:47:45.037Z,9.29
2018-03-08T04:48:25.504Z,9.31
2018-03-08T04:49:06.032Z,9.28
2018-03-08T04:49:46.483Z,9.36
2018-03-08T04:50:26.998Z,9.38
2018-03-08T04:51:07.464Z,9.43
2018-03-08T04:51:47.944Z,9.39
2018-03-08T04:52:28.452Z,9.51
2018-03-08T04:53:08.947Z,9.48
2018-03-08T04:53:49.445Z,9.5
2018-03-08T04:54:29.939Z,9.58
2018-03-08T04:55:10.443Z,9.57
2018-03-08T04:55:50.961Z,9.57
2018-03-08T04:56:31.424Z,9.58
2018-03-08T04:57:11.901Z,9.54
2018-03-08T04:57:52.434Z,9.56
2018-03-08T04:58:32.911Z,9.54
2018-03-08T04:59:13.427Z,9.5
2018-03-08T04:59:53.884Z,9.64
2018-03-08T05:00:34.371Z,9.68
2018-03-08T05:01:14.870Z,9.75
2018-03-08T05:01:55.372Z,9.66
2018-03-08T05:02:35.902Z,9.68
2018-03-08T05:03:16.383Z,9.61
2018-03-08T05:03:56.842Z,9.56
2018-03-08T05:04:37.485Z,9.65
2018-03-08T05:05:17.982Z,9.6
2018-03-08T05:05:58.531Z,9.53
2018-03-08T05:06:38.942Z,9.58
2018-03-08T05:07:19.433Z,9.72
2018-03-08T05:07:59.966Z,9.74
2018-03-08T05:08:40.478Z,9.66
2018-03-08T05:09:20.939Z,9.74
2018-03-08T05:10:01.447Z,9.68
2018-03-08T05:10:41.893Z,9.72
2018-03-08T05:11:22.393Z,9.72
2018-03-08T05:12:02.914Z,9.66
2018-03-08T05:12:43.435Z,9.71
2018-03-08T05:13:23.921Z,9.76
2018-03-08T05:14:04.389Z,9.74
2018-03-08T05:14:44.940Z,9.72
2018-03-08T05:15:25.415Z,9.78
2018-03-08T05:16:05.908Z,9.65
2018-03-08T05:16:46.391Z,9.71
2018-03-08T05:17:26.844Z,9.69
2018-03-08T05:18:07.349Z,9.69
2018-03-08T05:18:47.869Z,9.68
2018-03-08T05:19:28.353Z,9.72
2018-03-08T05:20:08.868Z,9.76
2018-03-08T05:20:49.326Z,9.58
2018-03-08T05:21:29.850Z,9.61
2018-03-08T05:22:10.374Z,9.71
2018-03-08T05:22:50.901Z,9.74
2018-03-08T05:23:31.397Z,9.71
2018-03-08T05:24:11.911Z,9.54
2018-03-08T05:24:52.428Z,9.6
2018-03-08T05:25:32.949Z,9.53
2018-03-08T05:26:13.460Z,9.58
2018-03-08T05:26:53.978Z,9.53
2018-03-08T05:27:34.493Z,9.56
2018-03-08T05:28:15.014Z,9.6
2018-03-08T05:28:55.529Z,9.66
2018-03-08T05:29:36.036Z,9.66
2018-03-08T05:30:16.574Z,9.66
2018-03-08T05:30:57.093Z,9.68
2018-03-08T05:31:37.603Z,9.71
2018-03-08T05:32:18.296Z,9.71
2018-03-08T05:32:58.775Z,9.68
2018-03-08T05:33:39.224Z,9.74
2018-03-08T05:34:20.033Z,9.72
2018-03-08T05:35:00.256Z,9.76
2018-03-08T05:35:40.695Z,9.69
2018-03-08T05:36:21.240Z,9.65
2018-03-08T05:37:01.804Z,9.74
2018-03-08T05:37:42.528Z,9.75
2018-03-08T05:38:22.740Z,9.68
2018-03-08T05:39:03.396Z,9.71
2018-03-08T05:39:43.902Z,9.71
2018-03-08T05:40:24.411Z,9.79
2018-03-08T05:41:04.938Z,9.74
2018-03-08T05:41:45.442Z,9.75
2018-03-08T05:42:25.890Z,9.74
2018-03-08T05:43:06.374Z,9.78
2018-03-08T05:43:46.857Z,9.78
2018-03-08T05:44:27.364Z,9.72
2018-03-08T05:45:07.823Z,9.71
2018-03-08T05:45:48.296Z,9.72
2018-03-08T05:46:28.831Z,9.76
2018-03-08T05:47:09.302Z,9.65
2018-03-08T05:47:49.771Z,9.69
2018-03-08T05:48:30.258Z,9.68
2018-03-08T05:49:10.740Z,9.71
2018-03-08T05:49:51.221Z,9.84
2018-03-08T05:50:31.718Z,9.78
2018-03-08T05:51:12.231Z,9.75
2018-03-08T05:51:52.754Z,9.78
2018-03-08T05:52:33.266Z,9.89
2018-03-08T05:53:13.782Z,9.83
2018-03-08T05:53:54.313Z,9.83
2018-03-08T05:54:34.825Z,9.83
2018-03-08T05:55:15.332Z,9.86
2018-03-08T05:55:55.860Z,9.86
2018-03-08T05:56:36.374Z,9.76
2018-03-08T05:57:16.883Z,9.78
2018-03-08T05:57:57.405Z,9.75
2018-03-08T05:58:37.917Z,9.78
2018-03-08T05:59:18.442Z,9.78
2018-03-08T05:59:58.943Z,9.75
2018-03-08T06:00:39.457Z,9.69
2018-03-08T06:01:19.966Z,9.78
2018-03-08T06:02:00.495Z,9.87
2018-03-08T06:02:40.991Z,9.84
2018-03-08T06:03:21.511Z,9.87
2018-03-08T06:04:02.025Z,9.76
2018-03-08T06:04:42.536Z,9.69
2018-03-08T06:05:23.050Z,9.72
2018-03-08T06:06:03.559Z,9.72
2018-03-08T06:06:44.074Z,9.72
2018-03-08T06:07:24.592Z,9.75
2018-03-08T06:08:05.111Z,9.78
2018-03-08T06:08:45.621Z,9.72
2018-03-08T06:09:26.129Z,9.74
2018-03-08T06:10:06.641Z,9.84
2018-03-08T06:10:47.166Z,9.78
2018-03-08T06:11:27.700Z,9.81
2018-03-08T06:12:08.235Z,9.76
2018-03-08T06:12:48.757Z,9.74
2018-03-08T06:13:29.264Z,9.81
2018-03-08T06:14:09.799Z,9.75
2018-03-08T06:14:50.320Z,9.74
2018-03-08T06:15:30.834Z,9.83
2018-03-08T06:16:11.343Z,9.81
2018-03-08T06:16:51.844Z,9.69
2018-03-08T06:17:32.534Z,9.71
2018-03-08T06:18:12.856Z,9.69
2018-03-08T06:18:53.369Z,9.54
2018-03-08T06:19:33.860Z,9.61
2018-03-08T06:20:14.367Z,9.6
2018-03-08T06:20:54.869Z,9.57
2018-03-08T06:21:35.385Z,9.56
2018-03-08T06:22:15.898Z,9.61
2018-03-08T06:22:56.402Z,9.61
2018-03-08T06:23:36.906Z,9.75
2018-03-08T06:24:17.404Z,9.74
2018-03-08T06:24:57.906Z,9.65
2018-03-08T06:25:38.417Z,9.6
2018-03-08T06:26:18.942Z,9.66
2018-03-08T06:26:59.446Z,9.72
2018-03-08T06:27:39.993Z,9.71
2018-03-08T06:28:20.522Z,9.71
2018-03-08T06:29:01.020Z,9.69
2018-03-08T06:29:41.531Z,9.83
2018-03-08T06:30:22.091Z,9.83
2018-03-08T06:31:02.607Z,9.68
2018-03-08T06:31:43.114Z,9.6
2018-03-08T06:32:23.598Z,9.68
2018-03-08T06:33:04.124Z,9.6
2018-03-08T06:33:44.632Z,9.65
2018-03-08T06:34:25.143Z,9.78
2018-03-08T06:35:05.660Z,9.78
2018-03-08T06:35:46.148Z,9.69
2018-03-08T06:36:26.661Z,9.68
2018-03-08T06:37:07.278Z,9.68
2018-03-08T06:37:47.678Z,9.78
2018-03-08T06:38:28.145Z,9.74
2018-03-08T06:39:08.652Z,9.6
2018-03-08T06:39:49.164Z,9.43
2018-03-08T06:40:29.742Z,9.61
2018-03-08T06:41:10.204Z,9.61
2018-03-08T06:41:50.742Z,9.43
2018-03-08T06:42:31.235Z,9.61
2018-03-08T06:43:11.754Z,9.74
2018-03-08T06:43:52.223Z,9.66
2018-03-08T06:44:32.740Z,9.72
2018-03-08T06:45:13.237Z,9.78
2018-03-08T06:45:53.777Z,9.78
2018-03-08T06:46:34.398Z,9.69
2018-03-08T06:47:14.728Z,9.78
2018-03-08T06:47:55.243Z,9.68
2018-03-08T06:48:35.742Z,9.65
2018-03-08T06:49:16.249Z,9.72
2018-03-08T06:49:56.813Z,9.61
2018-03-08T06:50:37.342Z,9.69
2018-03-08T06:51:17.890Z,9.75
2018-03-08T06:51:58.410Z,9.66
2018-03-08T06:52:38.931Z,9.72
2018-03-08T06:53:19.436Z,9.79
2018-03-08T06:54:00.018Z,9.69
2018-03-08T06:54:40.542Z,9.71
2018-03-08T06:55:21.061Z,9.76
2018-03-08T06:56:01.569Z,9.72
2018-03-08T06:56:42.082Z,9.94
2018-03-08T06:57:22.606Z,10.09
2018-03-08T06:58:03.114Z,9.97
2018-03-08T06:58:43.635Z,9.99
2018-03-08T06:59:24.147Z,10.04
2018-03-08T07:00:04.672Z,10.18
2018-03-08T07:00:45.153Z,10.29
2018-03-08T07:01:25.662Z,10.34
2018-03-08T07:02:06.177Z,10.32
2018-03-08T07:02:46.712Z,10.3
2018-03-08T07:03:27.221Z,10.2
2018-03-08T07:04:07.795Z,10.17
2018-03-08T07:06:22.829Z,9.86
2018-03-08T07:07:03.375Z,9.81
2018-03-08T07:07:43.893Z,9.68
2018-03-08T07:08:24.407Z,9.72
2018-03-08T07:09:04.924Z,9.78
2018-03-08T07:09:45.467Z,9.9
2018-03-08T07:10:25.975Z,9.96
2018-03-08T07:11:06.518Z,9.99
2018-03-08T07:11:47.002Z,10.02
2018-03-08T07:12:27.497Z,10.09
2018-03-08T07:13:08.012Z,10.07
2018-03-08T07:13:48.531Z,10.04
2018-03-08T07:14:29.040Z,10.07
2018-03-08T07:15:09.545Z,10.14
2018-03-08T07:15:50.256Z,10.27
2018-03-08T07:16:30.756Z,10.32
2018-03-08T07:17:11.276Z,10.29
2018-03-08T07:17:51.801Z,10.3
2018-03-08T07:18:32.328Z,10.3
2018-03-08T07:19:12.840Z,10.29
2018-03-08T07:19:53.350Z,10.32
2018-03-08T07:20:33.991Z,10.32
2018-03-08T07:21:14.529Z,10.27
2018-03-08T07:21:55.052Z,10.3
2018-03-08T07:22:35.558Z,10.29
2018-03-08T07:23:16.072Z,10.08
2018-03-08T07:23:56.607Z,10.23
2018-03-08T07:24:37.118Z,10.14
2018-03-08T07:25:17.653Z,9.94
2018-03-08T07:25:58.170Z,10.09
2018-03-08T07:26:38.692Z,10.01
2018-03-08T07:27:19.203Z,9.94
2018-03-08T07:27:59.717Z,9.84
2018-03-08T07:28:40.260Z,9.89
2018-03-08T07:29:20.763Z,9.86
2018-03-08T07:30:01.281Z,9.89
2018-03-08T07:30:41.788Z,9.87
2018-03-08T07:31:22.302Z,9.93
2018-03-08T07:32:02.829Z,9.94
2018-03-08T07:32:43.341Z,10.05
2018-03-08T07:33:23.864Z,10.15
2018-03-08T07:34:04.392Z,10.11
2018-03-08T07:34:44.894Z,10.17
2018-03-08T07:35:25.392Z,10.12
2018-03-08T07:36:05.913Z,10.14
2018-03-08T07:36:46.426Z,10.17
2018-03-08T07:37:26.932Z,10.33
2018-03-08T07:38:07.463Z,10.41
2018-03-08T07:38:47.997Z,10.33
2018-03-08T07:39:28.502Z,10.38
2018-03-08T07:40:09.040Z,10.4
2018-03-08T07:40:49.644Z,10.42
2018-03-08T07:41:30.263Z,10.55
2018-03-08T07:42:10.904Z,10.56
2018-03-08T07:42:51.440Z,10.52
2018-03-08T07:43:31.968Z,10.61
2018-03-08T07:44:12.525Z,10.4
2018-03-08T07:44:53.052Z,10.44
2018-03-08T07:45:33.561Z,10.55
2018-03-08T07:46:14.068Z,10.51
2018-03-08T07:46:54.584Z,10.55
2018-03-08T07:47:35.126Z,10.61
2018-03-08T07:48:15.630Z,10.48
2018-03-08T07:48:56.142Z,10.52
2018-03-08T07:49:36.673Z,10.4
2018-03-08T07:50:17.182Z,10.55
2018-03-08T07:50:57.689Z,10.47
2018-03-08T07:51:38.208Z,10.44
2018-03-08T07:52:18.713Z,10.41
2018-03-08T07:52:59.232Z,10.42
2018-03-08T07:53:39.737Z,10.53
2018-03-08T07:54:20.486Z,10.63
2018-03-08T07:55:00.979Z,10.48
2018-03-08T07:55:41.493Z,10.48
2018-03-08T07:56:22.043Z,10.55
2018-03-08T07:57:02.617Z,10.52
2018-03-08T07:57:43.416Z,10.63
2018-03-08T07:58:23.942Z,10.56
2018-03-08T07:59:04.575Z,10.71
2018-03-08T07:59:45.090Z,10.61
2018-03-08T08:00:25.600Z,10.53
2018-03-08T08:01:06.115Z,10.73
2018-03-08T08:01:46.619Z,10.61
2018-03-08T08:02:27.148Z,10.81
2018-03-08T08:03:07.682Z,10.85
2018-03-08T08:03:48.183Z,10.82
2018-03-08T08:04:28.719Z,10.84
2018-03-08T08:05:09.305Z,10.86
2018-03-08T08:05:49.822Z,10.96
2018-03-08T08:06:30.320Z,10.94
2018-03-08T08:07:10.853Z,10.94
2018-03-08T08:07:51.377Z,10.78
2018-03-08T08:08:31.882Z,10.76
2018-03-08T08:09:12.413Z,10.78
2018-03-08T08:09:52.937Z,10.78
2018-03-08T08:10:33.472Z,10.84
2018-03-08T08:11:13.963Z,10.81
2018-03-08T08:11:54.469Z,10.78
2018-03-08T08:12:34.969Z,10.85
2018-03-08T08:13:15.690Z,10.7
2018-03-08T08:13:56.045Z,10.79
2018-03-08T08:14:36.588Z,10.73
2018-03-08T08:15:17.098Z,10.79
2018-03-08T08:15:57.666Z,10.88
2018-03-08T08:16:38.154Z,10.92
2018-03-08T08:17:18.680Z,10.99
2018-03-08T08:17:59.183Z,11
2018-03-08T08:18:39.691Z,10.92
2018-03-08T08:19:20.190Z,11.02
2018-03-08T08:20:00.708Z,10.97
2018-03-08T08:20:41.223Z,10.96
2018-03-08T08:21:21.759Z,10.99
2018-03-08T08:22:02.245Z,11.02
2018-03-08T08:22:42.774Z,10.97
2018-03-08T08:23:23.314Z,11.06
2018-03-08T08:24:03.839Z,11.06
2018-03-08T08:24:44.376Z,10.99
2018-03-08T08:25:24.882Z,10.89
2018-03-08T08:26:05.408Z,10.89
2018-03-08T08:26:46.026Z,10.79
2018-03-08T08:27:26.520Z,10.94
2018-03-08T08:28:07.032Z,10.99
2018-03-08T08:28:47.560Z,10.99
2018-03-08T08:29:28.067Z,11
2018-03-08T08:30:08.584Z,10.99
2018-03-08T08:30:49.091Z,10.96
2018-03-08T08:31:29.615Z,11.09
2018-03-08T08:33:27.777Z,11.24
2018-03-08T08:34:08.304Z,11.18
2018-03-08T08:34:48.812Z,11.25
2018-03-08T08:35:29.322Z,11.21
2018-03-08T08:36:09.868Z,11.37
2018-03-08T08:36:50.353Z,11.42
2018-03-08T08:37:30.861Z,11.49
2018-03-08T08:38:11.466Z,11.54
2018-03-08T08:38:51.995Z,11.6
2018-03-08T08:39:32.511Z,11.65
2018-03-08T08:40:13.020Z,11.8
2018-03-08T08:40:53.530Z,11.8
2018-03-08T08:41:34.039Z,11.83
2018-03-08T08:42:14.560Z,11.95
2018-03-08T08:42:55.056Z,11.85
2018-03-08T08:43:35.692Z,11.8
2018-03-08T08:44:16.201Z,11.8
2018-03-08T08:44:56.711Z,11.67
2018-03-08T08:45:37.230Z,11.69
2018-03-08T08:46:17.742Z,11.7
2018-03-08T08:46:58.265Z,11.72
2018-03-08T08:47:38.779Z,11.72
2018-03-08T08:48:19.312Z,11.85
2018-03-08T08:48:59.801Z,11.83
2018-03-08T08:49:40.365Z,11.9
2018-03-08T08:50:20.860Z,11.86
2018-03-08T08:51:01.356Z,11.95
2018-03-08T08:51:41.885Z,11.95
2018-03-08T08:52:22.399Z,12.09
2018-03-08T08:53:02.929Z,11.95
2018-03-08T08:53:43.467Z,12.01
2018-03-08T08:54:23.976Z,11.96
2018-03-08T08:55:04.477Z,11.94
2018-03-08T08:55:44.997Z,11.9
2018-03-08T08:56:25.534Z,11.79
2018-03-08T08:57:06.042Z,11.85
2018-03-08T08:57:46.550Z,11.86
2018-03-08T08:58:27.068Z,11.78
2018-03-08T08:59:07.590Z,11.69
2018-03-08T08:59:48.124Z,11.65